createdAt,value
2022-08-08T00:01:52.773Z,721.8
2022-08-08T00:06:36.591Z,795.5
2022-08-08T00:11:46.341Z,929.9
2022-08-08T00:16:42.004Z,846.8
2022-08-08T00:21:49.130Z,971.4
2022-08-08T00:26:53.545Z,924.7
2022-08-08T00:32:16.529Z,937.1
2022-08-08T00:37:16.383Z,869.8
2022-08-08T00:42:19.812Z,760.4
2022-08-08T00:47:23.834Z,961.3
2022-08-08T00:52:34.691Z,879.7
2022-08-08T00:57:34.450Z,1034.2
2022-08-08T01:03:57.755Z,1016
2022-08-08T01:07:55.206Z,861.6
2022-08-08T01:12:44.947Z,1062.9
2022-08-08T01:17:54.079Z,1162
2022-08-08T01:22:55.680Z,1077.1
2022-08-08T01:28:00.036Z,1087.3
2022-08-08T01:33:16.100Z,1159.5
2022-08-08T01:38:11.348Z,1045.9
2022-08-08T01:43:16.701Z,1084.7
2022-08-08T01:48:30.321Z,1075.7
2022-08-08T01:54:33.532Z,1063.3
2022-08-08T01:58:38.962Z,162.6
2022-08-08T02:03:56.381Z,1208
2022-08-08T02:08:45.650Z,1153.4
2022-08-08T02:13:53.560Z,1111.2
2022-08-08T02:18:58.645Z,1120
2022-08-08T02:24:04.349Z,1142.4
2022-08-08T02:29:07.258Z,1133.6
2022-08-08T02:34:14.944Z,1148.5
2022-08-08T02:39:40.203Z,1166.6
2022-08-08T02:44:36.478Z,1108.8
2022-08-08T02:49:27.725Z,983.7
2022-08-08T02:54:23.527Z,1088.9
2022-08-08T02:59:26.362Z,1146
2022-08-08T03:05:02.049Z,1202.9
2022-08-08T03:09:32.996Z,1151.5
2022-08-08T03:15:55.532Z,1030.2
2022-08-08T03:20:30.237Z,380.1
2022-08-08T03:25:35.755Z,1154.1
2022-08-08T03:30:38.984Z,1161
2022-08-08T03:35:44.781Z,1138.3
2022-08-08T03:40:49.951Z,958.3
2022-08-08T03:46:03.943Z,1058.3
2022-08-08T03:51:02.197Z,1153.3
2022-08-08T03:56:09.361Z,1156.8
2022-08-08T04:01:23.928Z,1166.3
2022-08-08T04:06:17.578Z,1173.4
2022-08-08T04:11:23.514Z,1138.4
2022-08-08T04:16:38.688Z,1129.2
2022-08-08T04:21:29.918Z,1068
2022-08-08T04:26:40.168Z,981.7
2022-08-08T04:31:57.067Z,933.4
2022-08-08T04:36:46.837Z,1193.6
2022-08-08T04:41:53.820Z,1160.8
2022-08-08T04:47:00.689Z,1165.7
2022-08-08T04:52:04.060Z,1179.2
2022-08-08T04:57:07.105Z,1186.7
2022-08-08T05:02:13.566Z,1171.2
2022-08-08T05:07:15.013Z,1143.1
2022-08-08T05:12:20.277Z,1101
2022-08-08T05:17:22.737Z,1170.7
2022-08-08T05:22:25.377Z,1144.1
2022-08-08T05:27:33.336Z,1145
2022-08-08T05:32:36.729Z,1142.8
2022-08-08T05:37:52.435Z,1053.4
2022-08-08T05:42:50.435Z,1093.8
2022-08-08T05:48:00.219Z,1084.5
2022-08-08T05:52:54.466Z,1134.4
2022-08-08T05:58:17.249Z,1168.8
2022-08-08T06:03:17.641Z,1158.4
2022-08-08T06:08:28.477Z,1174.8
2022-08-08T06:13:22.527Z,1203.2
2022-08-08T06:18:27.617Z,1254.1
2022-08-08T06:23:52.345Z,1200.2
2022-08-08T06:28:32.575Z,1943
2022-08-08T06:33:36.710Z,1151.1
2022-08-08T06:38:40.351Z,1174.5
2022-08-08T06:43:47.547Z,892.1
2022-08-08T06:48:53.233Z,643.6
2022-08-08T06:54:00.717Z,612.8
2022-08-08T06:59:09.675Z,414.8
2022-08-08T07:04:35.397Z,268.9
2022-08-08T07:09:15.162Z,288
2022-08-08T07:14:19.849Z,65.9
2022-08-08T07:19:26.584Z,21.3
2022-08-08T07:24:32.497Z,10.5
2022-08-08T07:30:00.648Z,25.8
2022-08-08T07:34:35.414Z,61.5
2022-08-08T07:39:46.060Z,69.7
2022-08-08T07:44:43.448Z,28.7
2022-08-08T07:49:50.926Z,69.6
2022-08-08T07:54:58.819Z,318.1
2022-08-08T08:00:02.706Z,1382.9
2022-08-08T08:05:07.082Z,1577.1
2022-08-08T08:10:08.563Z,1431
2022-08-08T08:15:15.263Z,1602.3
2022-08-08T08:20:29.651Z,1507
2022-08-08T08:25:41.224Z,1478.6
2022-08-08T08:30:40.624Z,1336.6
2022-08-08T08:36:18.252Z,1652.2
2022-08-08T08:40:51.714Z,1605.8
2022-08-08T08:45:57.217Z,1593.2
2022-08-08T08:50:56.348Z,1601.2
2022-08-08T08:56:03.096Z,1617
2022-08-08T09:01:09.345Z,1625.8
2022-08-08T09:06:26.125Z,1680.3
2022-08-08T09:11:25.542Z,1673.2
2022-08-08T09:16:28.985Z,1742.7
2022-08-08T09:21:54.678Z,1694
2022-08-08T09:26:39.435Z,1791.8
2022-08-08T09:31:43.422Z,1796.3
2022-08-08T09:36:51.345Z,1779.4
2022-08-08T09:42:15.304Z,1813.7
2022-08-08T09:46:57.090Z,1836.5
2022-08-08T09:52:07.701Z,1851.4
2022-08-08T09:57:04.682Z,1841.6
2022-08-08T10:02:12.444Z,1853.7
2022-08-08T10:07:07.871Z,1850.2
2022-08-08T10:12:22.831Z,1854.9
2022-08-08T10:17:56.245Z,1854.9
2022-08-08T10:22:25.651Z,1842.8
2022-08-08T10:27:29.505Z,1852.6
2022-08-08T10:32:38.992Z,1856.1
2022-08-08T10:37:41.572Z,1851.4
2022-08-08T10:42:45.532Z,1826.1
2022-08-08T10:47:53.741Z,1796.3
2022-08-08T10:52:50.396Z,1806.6
2022-08-08T10:57:55.020Z,1824.7
2022-08-08T11:02:58.709Z,1817.9
2022-08-08T11:08:30.364Z,1785.6
2022-08-08T11:13:28.326Z,1774.6
2022-08-08T11:18:15.995Z,1768.1
2022-08-08T11:23:21.664Z,1800.8
2022-08-08T11:28:22.669Z,1812.3
2022-08-08T11:33:49.636Z,1824.7
2022-08-08T11:38:39.804Z,1834
2022-08-08T11:43:38.733Z,1736.2
2022-08-08T11:48:40.396Z,1737.8
2022-08-08T11:53:55.377Z,1742.7
2022-08-08T11:58:57.198Z,1706.3
2022-08-08T12:04:03.243Z,1658.3
2022-08-08T12:09:07.290Z,1713.7
2022-08-08T12:14:11.106Z,1702.3
2022-08-08T12:19:12.673Z,1680.6
2022-08-08T12:24:20.355Z,1676.6
2022-08-08T12:29:21.742Z,1643.2
2022-08-08T12:34:31.517Z,1617
2022-08-08T12:39:59.902Z,1614.7
2022-08-08T12:44:40.675Z,1601.2
2022-08-08T12:49:42.932Z,1601.2
2022-08-08T12:54:48.390Z,1573.3
2022-08-08T13:00:03.973Z,1575.6
2022-08-08T13:05:05.831Z,1568.5
2022-08-08T13:10:05.434Z,1561.4
2022-08-08T13:15:06.800Z,1582.7
2022-08-08T13:20:09.907Z,1573.3
2022-08-08T13:25:18.307Z,1563.8
2022-08-08T13:30:26.257Z,1563.8
2022-08-08T13:35:38.463Z,1504.5
2022-08-08T13:40:31.119Z,1496.9
2022-08-08T13:45:40.909Z,1517.2
2022-08-08T13:50:43.129Z,1484
2022-08-08T13:55:48.129Z,1425.9
2022-08-08T14:00:54.215Z,1407
2022-08-08T14:05:57.568Z,1376.7
2022-08-08T14:11:04.056Z,1412.4
2022-08-08T14:16:04.059Z,1420.5
2022-08-08T14:21:12.872Z,1396
2022-08-08T14:26:14.186Z,1385
2022-08-08T14:31:20.225Z,1396
2022-08-08T14:36:19.758Z,1358.4
2022-08-08T14:41:45.735Z,1042.7
2022-08-08T14:46:31.222Z,1036.3
2022-08-08T14:51:47.391Z,974.1
2022-08-08T14:56:45.858Z,939.7
2022-08-08T15:01:49.699Z,873.3
2022-08-08T15:06:56.272Z,878.5
2022-08-08T15:12:04.042Z,1049
2022-08-08T15:17:08.421Z,1051.1
2022-08-08T15:22:18.028Z,1191.7
2022-08-08T15:27:58.534Z,1222.7
2022-08-08T15:32:30.121Z,1283.1
2022-08-08T15:37:34.653Z,1138.1
2022-08-08T15:42:38.919Z,1083.7
2022-08-08T15:47:57.594Z,687.9
2022-08-08T15:52:53.014Z,587.7
2022-08-08T15:57:57.637Z,513.2
2022-08-08T16:03:02.438Z,327.1
2022-08-08T16:08:08.522Z,328.8
2022-08-08T16:13:29.084Z,278.8
2022-08-08T16:18:14.133Z,265.2
2022-08-08T16:23:22.415Z,493
2022-08-08T16:28:35.030Z,282.8
2022-08-08T16:33:36.100Z,517.5
2022-08-08T16:38:40.622Z,376
2022-08-08T16:43:49.378Z,327.9
2022-08-08T16:48:55.989Z,296
2022-08-08T16:55:07.868Z,266.1
2022-08-08T16:59:10.414Z,97.9
2022-08-08T17:04:13.672Z,164
2022-08-08T17:09:23.800Z,263.3
2022-08-08T17:14:33.817Z,281.6
2022-08-08T17:19:41.145Z,266.8
2022-08-08T17:24:39.218Z,227.5
2022-08-08T17:29:43.587Z,233.2
2022-08-08T17:35:00.288Z,244.6
2022-08-08T17:40:03.653Z,99.3
2022-08-08T17:44:58.725Z,160.7
2022-08-08T17:50:02.857Z,223.6
2022-08-08T17:55:09.439Z,271.1
2022-08-08T18:00:19.446Z,175.1
2022-08-08T18:05:22.482Z,161.2
2022-08-08T18:10:31.175Z,155.1
2022-08-08T18:15:25.401Z,210.7
2022-08-08T18:20:36.419Z,255.6
2022-08-08T18:25:40.027Z,175.3
2022-08-08T18:30:44.393Z,223.5
2022-08-08T18:35:49.244Z,209.4
2022-08-08T18:40:54.201Z,222.2
2022-08-08T18:46:53.958Z,242
2022-08-08T18:50:59.858Z,181.9
2022-08-08T18:56:03.860Z,262.4
2022-08-08T19:01:06.842Z,239.8
2022-08-08T19:06:11.795Z,143.8
2022-08-08T19:11:21.523Z,199.8
2022-08-08T19:16:28.322Z,142.9
2022-08-08T19:21:49.041Z,150.2
2022-08-08T19:26:35.769Z,167.2
2022-08-08T19:31:46.977Z,161.4
2022-08-08T19:36:46.480Z,133.7
2022-08-08T19:41:50.664Z,122.3
2022-08-08T19:46:53.008Z,80.9
2022-08-08T19:51:54.172Z,72.1
2022-08-08T19:56:58.439Z,120.5
2022-08-08T20:02:02.865Z,185.3
2022-08-08T20:07:03.751Z,155.5
2022-08-08T20:12:03.246Z,76.8
2022-08-08T20:17:04.099Z,73.3
2022-08-08T20:22:13.005Z,59.1
2022-08-08T20:27:20.137Z,43.8
2022-08-08T20:32:16.253Z,31.6
2022-08-08T20:37:17.729Z,17.8
2022-08-08T20:42:23.869Z,20.6
2022-08-08T20:47:23.145Z,26.4
2022-08-08T20:52:29.045Z,270.2
2022-08-08T20:57:31.927Z,605.2
2022-08-08T21:02:32.591Z,346.2
2022-08-08T21:07:48.011Z,409.1
2022-08-08T21:12:44.767Z,443.6
2022-08-08T21:17:55.798Z,1039.4
2022-08-08T21:22:49.385Z,748.5
2022-08-08T21:28:06.783Z,390.5
2022-08-08T21:32:58.226Z,463
2022-08-08T21:38:03.879Z,167.8
2022-08-08T21:43:03.478Z,104.1
2022-08-08T21:48:19.751Z,104.2
2022-08-08T21:54:19.223Z,131.8
2022-08-08T21:58:13.904Z,672.1
2022-08-08T22:03:21.890Z,410.6
2022-08-08T22:08:24.511Z,94.2
2022-08-08T22:13:43.428Z,8.9
2022-08-08T22:18:35.508Z,3.2
2022-08-08T22:23:40.885Z,1.9
2022-08-08T22:29:05.362Z,1.9
2022-08-08T22:34:11.306Z,1.9
2022-08-08T22:39:02.393Z,3.9
2022-08-08T22:44:09.776Z,3
2022-08-08T22:49:17.995Z,2.8
2022-08-08T22:54:29.846Z,3
2022-08-08T22:59:19.596Z,6.2
2022-08-08T23:04:31.801Z,4.2
2022-08-08T23:09:20.612Z,3.4
2022-08-08T23:14:21.326Z,4.4
2022-08-08T23:19:27.664Z,4
2022-08-08T23:24:41.275Z,5.2
2022-08-08T23:29:40.300Z,3.3
2022-08-08T23:34:49.489Z,4.6
2022-08-08T23:39:49.349Z,5.1
2022-08-08T23:44:52.080Z,3.8
2022-08-08T23:50:01.201Z,4.6
2022-08-08T23:55:07.558Z,6.1
